sensor_id;sensor_type;location;lat;lon;timestamp;temperature;humidity
18384;DHT22;9318;48.644;9.456;2022-08-19T00:00:37;21.10;99.90
18384;DHT22;9318;48.644;9.456;2022-08-19T00:03:05;21.10;99.90
18384;DHT22;9318;48.644;9.456;2022-08-19T00:05:33;21.10;99.90
18384;DHT22;9318;48.644;9.456;2022-08-19T00:08:01;21.10;99.90
18384;DHT22;9318;48.644;9.456;2022-08-19T00:10:28;21.10;99.90
18384;DHT22;9318;48.644;9.456;2022-08-19T00:12:56;21.10;99.90
18384;DHT22;9318;48.644;9.456;2022-08-19T00:15:23;21.10;99.90
18384;DHT22;9318;48.644;9.456;2022-08-19T00:17:52;21.10;99.90
18384;DHT22;9318;48.644;9.456;2022-08-19T00:20:21;21.10;99.90
18384;DHT22;9318;48.644;9.456;2022-08-19T00:22:48;21.10;99.90
18384;DHT22;9318;48.644;9.456;2022-08-19T00:25:16;21.10;99.90
18384;DHT22;9318;48.644;9.456;2022-08-19T00:27:44;21.20;99.90
18384;DHT22;9318;48.644;9.456;2022-08-19T00:30:12;21.20;99.90
18384;DHT22;9318;48.644;9.456;2022-08-19T00:32:39;21.30;99.90
18384;DHT22;9318;48.644;9.456;2022-08-19T00:35:09;21.30;99.90
18384;DHT22;9318;48.644;9.456;2022-08-19T00:37:37;21.40;99.90
18384;DHT22;9318;48.644;9.456;2022-08-19T00:40:07;21.30;99.90
18384;DHT22;9318;48.644;9.456;2022-08-19T00:42:35;21.20;99.90
18384;DHT22;9318;48.644;9.456;2022-08-19T00:45:10;21.00;99.90
18384;DHT22;9318;48.644;9.456;2022-08-19T00:47:38;20.80;99.90
18384;DHT22;9318;48.644;9.456;2022-08-19T00:50:08;20.70;99.90
18384;DHT22;9318;48.644;9.456;2022-08-19T00:52:39;20.60;99.90
18384;DHT22;9318;48.644;9.456;2022-08-19T00:55:14;20.50;99.90
18384;DHT22;9318;48.644;9.456;2022-08-19T00:57:46;20.40;99.90
18384;DHT22;9318;48.644;9.456;2022-08-19T01:00:17;20.20;99.90
18384;DHT22;9318;48.644;9.456;2022-08-19T01:02:45;20.20;99.90
18384;DHT22;9318;48.644;9.456;2022-08-19T01:05:16;20.20;99.90
18384;DHT22;9318;48.644;9.456;2022-08-19T01:07:47;20.20;99.90
18384;DHT22;9318;48.644;9.456;2022-08-19T01:10:19;20.20;99.90
18384;DHT22;9318;48.644;9.456;2022-08-19T01:12:47;20.10;99.90
18384;DHT22;9318;48.644;9.456;2022-08-19T01:15:18;20.10;99.90
18384;DHT22;9318;48.644;9.456;2022-08-19T01:17:46;20.20;99.90
18384;DHT22;9318;48.644;9.456;2022-08-19T01:20:19;20.30;99.90
18384;DHT22;9318;48.644;9.456;2022-08-19T01:22:49;20.40;99.90
18384;DHT22;9318;48.644;9.456;2022-08-19T01:25:19;20.50;99.90
18384;DHT22;9318;48.644;9.456;2022-08-19T01:27:49;20.60;99.90
18384;DHT22;9318;48.644;9.456;2022-08-19T01:30:19;20.70;99.90
18384;DHT22;9318;48.644;9.456;2022-08-19T01:32:48;20.80;99.90
18384;DHT22;9318;48.644;9.456;2022-08-19T01:35:15;20.80;99.90
18384;DHT22;9318;48.644;9.456;2022-08-19T01:37:50;20.60;99.90
18384;DHT22;9318;48.644;9.456;2022-08-19T01:40:20;20.50;99.90
18384;DHT22;9318;48.644;9.456;2022-08-19T01:42:48;20.50;99.90
18384;DHT22;9318;48.644;9.456;2022-08-19T01:45:15;20.40;99.90
18384;DHT22;9318;48.644;9.456;2022-08-19T01:47:42;20.30;99.90
18384;DHT22;9318;48.644;9.456;2022-08-19T01:50:12;20.20;99.90
18384;DHT22;9318;48.644;9.456;2022-08-19T01:52:41;20.20;99.90
18384;DHT22;9318;48.644;9.456;2022-08-19T01:55:13;20.20;99.90
18384;DHT22;9318;48.644;9.456;2022-08-19T01:57:42;20.20;99.90
18384;DHT22;9318;48.644;9.456;2022-08-19T02:00:14;20.10;99.90
18384;DHT22;9318;48.644;9.456;2022-08-19T02:02:42;20.10;99.90
18384;DHT22;9318;48.644;9.456;2022-08-19T02:05:11;20.00;99.90
18384;DHT22;9318;48.644;9.456;2022-08-19T02:07:40;19.90;99.90
18384;DHT22;9318;48.644;9.456;2022-08-19T02:10:12;19.90;99.90
18384;DHT22;9318;48.644;9.456;2022-08-19T02:12:40;19.90;99.90
18384;DHT22;9318;48.644;9.456;2022-08-19T02:15:08;20.00;99.90
18384;DHT22;9318;48.644;9.456;2022-08-19T02:17:35;20.10;99.90
18384;DHT22;9318;48.644;9.456;2022-08-19T02:20:04;20.20;99.90
18384;DHT22;9318;48.644;9.456;2022-08-19T02:22:32;20.30;99.90
18384;DHT22;9318;48.644;9.456;2022-08-19T02:24:59;20.30;99.90
18384;DHT22;9318;48.644;9.456;2022-08-19T02:27:28;20.30;99.90
18384;DHT22;9318;48.644;9.456;2022-08-19T02:29:56;20.30;99.90
18384;DHT22;9318;48.644;9.456;2022-08-19T02:32:23;20.40;99.90
18384;DHT22;9318;48.644;9.456;2022-08-19T02:34:51;20.30;99.90
18384;DHT22;9318;48.644;9.456;2022-08-19T02:37:18;20.30;99.90
18384;DHT22;9318;48.644;9.456;2022-08-19T02:40:03;20.30;99.90
18384;DHT22;9318;48.644;9.456;2022-08-19T02:42:32;20.40;99.90
18384;DHT22;9318;48.644;9.456;2022-08-19T02:44:59;20.50;99.90
18384;DHT22;9318;48.644;9.456;2022-08-19T02:47:27;20.40;99.90
18384;DHT22;9318;48.644;9.456;2022-08-19T02:49:54;20.50;99.90
18384;DHT22;9318;48.644;9.456;2022-08-19T02:52:21;20.50;99.90
18384;DHT22;9318;48.644;9.456;2022-08-19T02:54:49;20.50;99.90
18384;DHT22;9318;48.644;9.456;2022-08-19T02:57:16;20.60;99.90
18384;DHT22;9318;48.644;9.456;2022-08-19T02:59:45;20.60;99.90
18384;DHT22;9318;48.644;9.456;2022-08-19T03:02:12;20.60;99.90
18384;DHT22;9318;48.644;9.456;2022-08-19T03:04:39;20.60;99.90
18384;DHT22;9318;48.644;9.456;2022-08-19T03:07:07;20.50;99.90
18384;DHT22;9318;48.644;9.456;2022-08-19T03:09:36;20.50;99.90
18384;DHT22;9318;48.644;9.456;2022-08-19T03:12:04;20.40;99.90
18384;DHT22;9318;48.644;9.456;2022-08-19T03:14:32;20.40;99.90
18384;DHT22;9318;48.644;9.456;2022-08-19T03:17:01;20.40;99.90
18384;DHT22;9318;48.644;9.456;2022-08-19T03:19:30;20.40;99.90
18384;DHT22;9318;48.644;9.456;2022-08-19T03:21:58;20.50;99.90
18384;DHT22;9318;48.644;9.456;2022-08-19T03:24:25;20.50;99.90
18384;DHT22;9318;48.644;9.456;2022-08-19T03:26:54;20.50;99.90
18384;DHT22;9318;48.644;9.456;2022-08-19T03:29:24;20.50;99.90
18384;DHT22;9318;48.644;9.456;2022-08-19T03:31:51;20.60;99.90
18384;DHT22;9318;48.644;9.456;2022-08-19T03:34:24;20.50;99.90
18384;DHT22;9318;48.644;9.456;2022-08-19T03:36:52;20.50;99.90
18384;DHT22;9318;48.644;9.456;2022-08-19T03:39:21;20.50;99.90
18384;DHT22;9318;48.644;9.456;2022-08-19T03:41:49;20.40;99.90
18384;DHT22;9318;48.644;9.456;2022-08-19T03:44:18;20.40;99.90
18384;DHT22;9318;48.644;9.456;2022-08-19T03:46:47;20.30;99.90
18384;DHT22;9318;48.644;9.456;2022-08-19T03:49:15;20.30;99.90
18384;DHT22;9318;48.644;9.456;2022-08-19T03:51:45;20.30;99.90
18384;DHT22;9318;48.644;9.456;2022-08-19T03:54:15;20.20;99.90
18384;DHT22;9318;48.644;9.456;2022-08-19T03:56:44;20.20;99.90
18384;DHT22;9318;48.644;9.456;2022-08-19T03:59:14;20.20;99.90
18384;DHT22;9318;48.644;9.456;2022-08-19T04:01:41;20.10;99.90
18384;DHT22;9318;48.644;9.456;2022-08-19T04:04:09;20.10;99.90
18384;DHT22;9318;48.644;9.456;2022-08-19T04:06:37;20.20;99.90
18384;DHT22;9318;48.644;9.456;2022-08-19T04:09:09;20.20;99.90
18384;DHT22;9318;48.644;9.456;2022-08-19T04:11:39;20.20;99.90
18384;DHT22;9318;48.644;9.456;2022-08-19T04:14:08;20.20;99.90
18384;DHT22;9318;48.644;9.456;2022-08-19T04:16:35;20.30;99.90
18384;DHT22;9318;48.644;9.456;2022-08-19T04:19:04;20.30;99.90
18384;DHT22;9318;48.644;9.456;2022-08-19T04:21:31;20.30;99.90
18384;DHT22;9318;48.644;9.456;2022-08-19T04:23:59;20.20;99.90
18384;DHT22;9318;48.644;9.456;2022-08-19T04:26:29;20.20;99.90
18384;DHT22;9318;48.644;9.456;2022-08-19T04:28:58;20.20;99.90
18384;DHT22;9318;48.644;9.456;2022-08-19T04:31:28;20.10;99.90
18384;DHT22;9318;48.644;9.456;2022-08-19T04:33:56;20.00;99.90
18384;DHT22;9318;48.644;9.456;2022-08-19T04:36:27;20.00;99.90
18384;DHT22;9318;48.644;9.456;2022-08-19T04:38:55;20.00;99.90
18384;DHT22;9318;48.644;9.456;2022-08-19T04:41:23;20.00;99.90
18384;DHT22;9318;48.644;9.456;2022-08-19T04:44:11;20.00;99.90
18384;DHT22;9318;48.644;9.456;2022-08-19T04:46:38;20.00;99.90
18384;DHT22;9318;48.644;9.456;2022-08-19T04:49:06;20.00;99.90
18384;DHT22;9318;48.644;9.456;2022-08-19T04:51:34;20.00;99.90
18384;DHT22;9318;48.644;9.456;2022-08-19T04:54:03;20.00;99.90
18384;DHT22;9318;48.644;9.456;2022-08-19T04:56:31;20.00;99.90
18384;DHT22;9318;48.644;9.456;2022-08-19T04:58:59;20.00;99.90
18384;DHT22;9318;48.644;9.456;2022-08-19T05:01:31;20.00;99.90
18384;DHT22;9318;48.644;9.456;2022-08-19T05:04:00;19.90;99.90
18384;DHT22;9318;48.644;9.456;2022-08-19T05:06:28;20.00;99.90
18384;DHT22;9318;48.644;9.456;2022-08-19T05:08:58;20.00;99.90
18384;DHT22;9318;48.644;9.456;2022-08-19T05:11:29;20.10;99.90
18384;DHT22;9318;48.644;9.456;2022-08-19T05:13:57;20.10;99.90
18384;DHT22;9318;48.644;9.456;2022-08-19T05:16:26;20.20;99.90
18384;DHT22;9318;48.644;9.456;2022-08-19T05:18:55;20.20;99.90
18384;DHT22;9318;48.644;9.456;2022-08-19T05:21:40;20.20;99.90
18384;DHT22;9318;48.644;9.456;2022-08-19T05:24:26;20.20;99.90
18384;DHT22;9318;48.644;9.456;2022-08-19T05:26:54;20.10;99.90
18384;DHT22;9318;48.644;9.456;2022-08-19T05:29:26;20.00;99.90
18384;DHT22;9318;48.644;9.456;2022-08-19T05:31:54;20.00;99.90
18384;DHT22;9318;48.644;9.456;2022-08-19T05:34:24;19.90;99.90
18384;DHT22;9318;48.644;9.456;2022-08-19T05:36:53;19.90;99.90
18384;DHT22;9318;48.644;9.456;2022-08-19T05:39:23;19.90;99.90
18384;DHT22;9318;48.644;9.456;2022-08-19T05:41:53;19.90;99.90
18384;DHT22;9318;48.644;9.456;2022-08-19T05:44:23;19.80;99.90
18384;DHT22;9318;48.644;9.456;2022-08-19T05:46:50;19.90;99.90
18384;DHT22;9318;48.644;9.456;2022-08-19T05:49:21;20.00;99.90
18384;DHT22;9318;48.644;9.456;2022-08-19T05:51:50;20.10;99.90
18384;DHT22;9318;48.644;9.456;2022-08-19T05:54:18;20.10;99.90
18384;DHT22;9318;48.644;9.456;2022-08-19T05:56:46;20.20;99.90
18384;DHT22;9318;48.644;9.456;2022-08-19T05:59:16;20.20;99.90
18384;DHT22;9318;48.644;9.456;2022-08-19T06:01:45;20.20;99.90
18384;DHT22;9318;48.644;9.456;2022-08-19T06:04:17;20.10;99.90
18384;DHT22;9318;48.644;9.456;2022-08-19T06:06:45;20.10;99.90
18384;DHT22;9318;48.644;9.456;2022-08-19T06:09:14;20.10;99.90
18384;DHT22;9318;48.644;9.456;2022-08-19T06:11:44;20.10;99.90
18384;DHT22;9318;48.644;9.456;2022-08-19T06:14:14;20.00;99.90
18384;DHT22;9318;48.644;9.456;2022-08-19T06:16:43;20.00;99.90
18384;DHT22;9318;48.644;9.456;2022-08-19T06:19:13;20.00;99.90
18384;DHT22;9318;48.644;9.456;2022-08-19T06:21:43;20.10;99.90
18384;DHT22;9318;48.644;9.456;2022-08-19T06:24:13;20.10;99.90
18384;DHT22;9318;48.644;9.456;2022-08-19T06:26:44;20.10;99.90
18384;DHT22;9318;48.644;9.456;2022-08-19T06:29:13;20.10;99.90
18384;DHT22;9318;48.644;9.456;2022-08-19T06:31:43;20.20;99.90
18384;DHT22;9318;48.644;9.456;2022-08-19T06:34:11;20.20;99.90
18384;DHT22;9318;48.644;9.456;2022-08-19T06:36:41;20.20;99.90
18384;DHT22;9318;48.644;9.456;2022-08-19T06:39:10;20.20;99.90
18384;DHT22;9318;48.644;9.456;2022-08-19T06:41:44;20.10;99.90
18384;DHT22;9318;48.644;9.456;2022-08-19T06:44:12;20.10;99.90
18384;DHT22;9318;48.644;9.456;2022-08-19T06:46:40;20.20;99.90
18384;DHT22;9318;48.644;9.456;2022-08-19T06:49:08;20.10;99.90
18384;DHT22;9318;48.644;9.456;2022-08-19T06:51:40;20.10;99.90
18384;DHT22;9318;48.644;9.456;2022-08-19T06:54:07;20.00;99.90
18384;DHT22;9318;48.644;9.456;2022-08-19T06:56:35;20.00;99.90
18384;DHT22;9318;48.644;9.456;2022-08-19T06:59:06;20.00;99.90
18384;DHT22;9318;48.644;9.456;2022-08-19T07:01:35;19.90;99.90
18384;DHT22;9318;48.644;9.456;2022-08-19T07:04:04;19.90;99.90
18384;DHT22;9318;48.644;9.456;2022-08-19T07:06:32;19.90;99.90
18384;DHT22;9318;48.644;9.456;2022-08-19T07:08:59;19.90;99.90
18384;DHT22;9318;48.644;9.456;2022-08-19T07:11:26;19.90;99.90
18384;DHT22;9318;48.644;9.456;2022-08-19T07:13:54;19.90;99.90
18384;DHT22;9318;48.644;9.456;2022-08-19T07:16:23;19.90;99.90
18384;DHT22;9318;48.644;9.456;2022-08-19T07:18:51;19.90;99.90
18384;DHT22;9318;48.644;9.456;2022-08-19T07:21:20;19.90;99.90
18384;DHT22;9318;48.644;9.456;2022-08-19T07:23:48;19.80;99.90
18384;DHT22;9318;48.644;9.456;2022-08-19T07:26:19;19.80;99.90
18384;DHT22;9318;48.644;9.456;2022-08-19T07:28:48;19.90;99.90
18384;DHT22;9318;48.644;9.456;2022-08-19T07:31:18;20.00;99.90
18384;DHT22;9318;48.644;9.456;2022-08-19T07:33:48;19.90;99.90
18384;DHT22;9318;48.644;9.456;2022-08-19T07:36:18;20.00;99.90
18384;DHT22;9318;48.644;9.456;2022-08-19T07:38:47;20.00;99.90
18384;DHT22;9318;48.644;9.456;2022-08-19T07:41:17;20.10;99.90
18384;DHT22;9318;48.644;9.456;2022-08-19T07:43:45;20.00;99.90
18384;DHT22;9318;48.644;9.456;2022-08-19T07:46:13;20.00;99.90
18384;DHT22;9318;48.644;9.456;2022-08-19T07:48:41;20.00;99.90
18384;DHT22;9318;48.644;9.456;2022-08-19T07:51:11;20.00;99.90
18384;DHT22;9318;48.644;9.456;2022-08-19T07:53:38;20.00;99.90
18384;DHT22;9318;48.644;9.456;2022-08-19T07:56:06;20.10;99.90
18384;DHT22;9318;48.644;9.456;2022-08-19T07:58:35;20.00;99.90
18384;DHT22;9318;48.644;9.456;2022-08-19T08:01:05;20.00;99.90
18384;DHT22;9318;48.644;9.456;2022-08-19T08:03:32;20.00;99.90
18384;DHT22;9318;48.644;9.456;2022-08-19T08:06:18;19.90;99.90
18384;DHT22;9318;48.644;9.456;2022-08-19T08:09:04;19.90;99.90
18384;DHT22;9318;48.644;9.456;2022-08-19T08:11:37;19.90;99.90
18384;DHT22;9318;48.644;9.456;2022-08-19T08:14:05;19.80;99.90
18384;DHT22;9318;48.644;9.456;2022-08-19T08:16:34;19.80;99.90
18384;DHT22;9318;48.644;9.456;2022-08-19T08:19:04;19.80;99.90
18384;DHT22;9318;48.644;9.456;2022-08-19T08:21:33;19.80;99.90
18384;DHT22;9318;48.644;9.456;2022-08-19T08:24:01;19.80;99.90
18384;DHT22;9318;48.644;9.456;2022-08-19T08:26:28;19.80;99.90
18384;DHT22;9318;48.644;9.456;2022-08-19T08:28:55;19.90;99.90
18384;DHT22;9318;48.644;9.456;2022-08-19T08:31:22;19.90;99.90
18384;DHT22;9318;48.644;9.456;2022-08-19T08:33:50;20.00;99.90
18384;DHT22;9318;48.644;9.456;2022-08-19T08:36:17;20.00;99.90
18384;DHT22;9318;48.644;9.456;2022-08-19T08:38:46;20.00;99.90
18384;DHT22;9318;48.644;9.456;2022-08-19T08:41:18;20.00;99.90
18384;DHT22;9318;48.644;9.456;2022-08-19T08:43:49;20.00;99.90
18384;DHT22;9318;48.644;9.456;2022-08-19T08:46:24;20.00;99.90
18384;DHT22;9318;48.644;9.456;2022-08-19T08:48:56;20.10;99.90
18384;DHT22;9318;48.644;9.456;2022-08-19T08:51:27;20.10;99.90
18384;DHT22;9318;48.644;9.456;2022-08-19T08:53:57;20.10;99.90
18384;DHT22;9318;48.644;9.456;2022-08-19T08:56:25;20.10;99.90
18384;DHT22;9318;48.644;9.456;2022-08-19T08:59:00;20.10;99.90
18384;DHT22;9318;48.644;9.456;2022-08-19T09:01:29;20.00;99.90
18384;DHT22;9318;48.644;9.456;2022-08-19T09:03:56;20.00;99.90
18384;DHT22;9318;48.644;9.456;2022-08-19T09:06:30;19.90;99.90
18384;DHT22;9318;48.644;9.456;2022-08-19T09:09:04;19.80;99.90
18384;DHT22;9318;48.644;9.456;2022-08-19T09:11:44;19.80;99.90
18384;DHT22;9318;48.644;9.456;2022-08-19T09:14:32;19.70;99.90
18384;DHT22;9318;48.644;9.456;2022-08-19T09:17:00;19.70;99.90
18384;DHT22;9318;48.644;9.456;2022-08-19T09:19:30;19.60;99.90
18384;DHT22;9318;48.644;9.456;2022-08-19T09:22:01;19.60;99.90
18384;DHT22;9318;48.644;9.456;2022-08-19T09:24:32;19.70;99.90
18384;DHT22;9318;48.644;9.456;2022-08-19T09:27:01;19.60;99.90
18384;DHT22;9318;48.644;9.456;2022-08-19T09:29:30;19.60;99.90
18384;DHT22;9318;48.644;9.456;2022-08-19T09:31:59;19.60;99.90
18384;DHT22;9318;48.644;9.456;2022-08-19T09:34:27;19.60;99.90
18384;DHT22;9318;48.644;9.456;2022-08-19T09:36:55;19.60;99.90
18384;DHT22;9318;48.644;9.456;2022-08-19T09:39:25;19.60;99.90
18384;DHT22;9318;48.644;9.456;2022-08-19T09:41:54;19.70;99.90
18384;DHT22;9318;48.644;9.456;2022-08-19T09:44:21;19.60;99.90
18384;DHT22;9318;48.644;9.456;2022-08-19T09:46:49;19.70;99.90
18384;DHT22;9318;48.644;9.456;2022-08-19T09:49:17;19.70;99.90
18384;DHT22;9318;48.644;9.456;2022-08-19T09:51:45;19.60;99.90
18384;DHT22;9318;48.644;9.456;2022-08-19T09:54:14;19.60;99.90
18384;DHT22;9318;48.644;9.456;2022-08-19T09:56:41;19.50;99.90
18384;DHT22;9318;48.644;9.456;2022-08-19T09:59:11;19.50;99.90
18384;DHT22;9318;48.644;9.456;2022-08-19T10:01:39;19.50;99.90
18384;DHT22;9318;48.644;9.456;2022-08-19T10:04:06;19.50;99.90
18384;DHT22;9318;48.644;9.456;2022-08-19T10:06:37;19.50;99.90
18384;DHT22;9318;48.644;9.456;2022-08-19T10:09:06;19.40;99.90
18384;DHT22;9318;48.644;9.456;2022-08-19T10:11:34;19.40;99.90
18384;DHT22;9318;48.644;9.456;2022-08-19T10:14:02;19.30;99.90
18384;DHT22;9318;48.644;9.456;2022-08-19T10:16:33;19.30;99.90
18384;DHT22;9318;48.644;9.456;2022-08-19T10:19:02;19.30;99.90
18384;DHT22;9318;48.644;9.456;2022-08-19T10:21:33;19.30;99.90
18384;DHT22;9318;48.644;9.456;2022-08-19T10:24:03;19.30;99.90
18384;DHT22;9318;48.644;9.456;2022-08-19T10:26:33;19.30;99.90
18384;DHT22;9318;48.644;9.456;2022-08-19T10:29:02;19.30;99.90
18384;DHT22;9318;48.644;9.456;2022-08-19T10:31:33;19.30;99.90
18384;DHT22;9318;48.644;9.456;2022-08-19T10:34:01;19.30;99.90
18384;DHT22;9318;48.644;9.456;2022-08-19T10:36:30;19.30;99.90
18384;DHT22;9318;48.644;9.456;2022-08-19T10:39:00;19.30;99.90
18384;DHT22;9318;48.644;9.456;2022-08-19T10:41:30;19.30;99.90
18384;DHT22;9318;48.644;9.456;2022-08-19T10:43:59;19.30;99.90
18384;DHT22;9318;48.644;9.456;2022-08-19T10:46:28;19.30;99.90
18384;DHT22;9318;48.644;9.456;2022-08-19T10:49:00;19.30;99.90
18384;DHT22;9318;48.644;9.456;2022-08-19T10:51:28;19.30;99.90
18384;DHT22;9318;48.644;9.456;2022-08-19T10:54:12;19.30;99.90
18384;DHT22;9318;48.644;9.456;2022-08-19T10:56:39;19.20;99.90
18384;DHT22;9318;48.644;9.456;2022-08-19T10:59:19;19.20;99.90
18384;DHT22;9318;48.644;9.456;2022-08-19T11:01:47;19.20;99.90
18384;DHT22;9318;48.644;9.456;2022-08-19T11:04:17;19.20;99.90
18384;DHT22;9318;48.644;9.456;2022-08-19T11:06:45;19.20;99.90
18384;DHT22;9318;48.644;9.456;2022-08-19T11:09:14;19.20;99.90
18384;DHT22;9318;48.644;9.456;2022-08-19T11:11:42;19.30;99.90
18384;DHT22;9318;48.644;9.456;2022-08-19T11:14:11;19.30;99.90
18384;DHT22;9318;48.644;9.456;2022-08-19T11:16:40;19.40;99.90
18384;DHT22;9318;48.644;9.456;2022-08-19T11:19:09;19.50;99.90
18384;DHT22;9318;48.644;9.456;2022-08-19T11:21:40;19.60;99.90
18384;DHT22;9318;48.644;9.456;2022-08-19T11:24:10;19.60;99.90
18384;DHT22;9318;48.644;9.456;2022-08-19T11:26:39;19.70;99.90
18384;DHT22;9318;48.644;9.456;2022-08-19T11:29:07;19.70;99.90
18384;DHT22;9318;48.644;9.456;2022-08-19T11:31:38;19.80;99.90
18384;DHT22;9318;48.644;9.456;2022-08-19T11:34:08;19.80;99.90
18384;DHT22;9318;48.644;9.456;2022-08-19T11:36:39;19.80;99.90
18384;DHT22;9318;48.644;9.456;2022-08-19T11:39:09;19.90;99.90
18384;DHT22;9318;48.644;9.456;2022-08-19T11:41:37;19.90;99.90
18384;DHT22;9318;48.644;9.456;2022-08-19T11:44:05;20.00;99.90
18384;DHT22;9318;48.644;9.456;2022-08-19T11:46:34;20.00;99.90
18384;DHT22;9318;48.644;9.456;2022-08-19T11:49:03;20.10;99.90
18384;DHT22;9318;48.644;9.456;2022-08-19T11:51:31;20.10;99.90
18384;DHT22;9318;48.644;9.456;2022-08-19T11:54:01;20.10;99.90
18384;DHT22;9318;48.644;9.456;2022-08-19T11:56:29;20.10;99.90
18384;DHT22;9318;48.644;9.456;2022-08-19T11:58:56;20.00;99.90
18384;DHT22;9318;48.644;9.456;2022-08-19T12:01:24;20.00;99.90
18384;DHT22;9318;48.644;9.456;2022-08-19T12:03:53;20.10;99.90
18384;DHT22;9318;48.644;9.456;2022-08-19T12:06:24;20.00;99.90
18384;DHT22;9318;48.644;9.456;2022-08-19T12:08:53;20.00;99.90
18384;DHT22;9318;48.644;9.456;2022-08-19T12:11:22;20.00;99.90
18384;DHT22;9318;48.644;9.456;2022-08-19T12:13:49;20.00;99.90
18384;DHT22;9318;48.644;9.456;2022-08-19T12:16:20;19.90;99.90
18384;DHT22;9318;48.644;9.456;2022-08-19T12:18:48;19.90;99.90
18384;DHT22;9318;48.644;9.456;2022-08-19T12:21:19;19.90;99.90
18384;DHT22;9318;48.644;9.456;2022-08-19T12:23:49;19.90;99.90
18384;DHT22;9318;48.644;9.456;2022-08-19T12:26:17;19.90;99.90
18384;DHT22;9318;48.644;9.456;2022-08-19T12:28:46;19.90;99.90
18384;DHT22;9318;48.644;9.456;2022-08-19T12:31:14;19.90;99.90
18384;DHT22;9318;48.644;9.456;2022-08-19T12:33:42;20.00;99.90
18384;DHT22;9318;48.644;9.456;2022-08-19T12:36:11;20.10;99.90
18384;DHT22;9318;48.644;9.456;2022-08-19T12:38:40;20.10;99.90
18384;DHT22;9318;48.644;9.456;2022-08-19T12:41:10;20.10;99.90
18384;DHT22;9318;48.644;9.456;2022-08-19T12:43:38;20.20;99.90
18384;DHT22;9318;48.644;9.456;2022-08-19T12:46:07;20.20;99.90
18384;DHT22;9318;48.644;9.456;2022-08-19T12:48:34;20.20;99.90
18384;DHT22;9318;48.644;9.456;2022-08-19T12:51:06;20.20;99.90
18384;DHT22;9318;48.644;9.456;2022-08-19T12:53:34;20.20;99.90
18384;DHT22;9318;48.644;9.456;2022-08-19T12:56:01;20.20;99.90
18384;DHT22;9318;48.644;9.456;2022-08-19T12:58:29;20.20;99.90
18384;DHT22;9318;48.644;9.456;2022-08-19T13:00:57;20.20;99.90
18384;DHT22;9318;48.644;9.456;2022-08-19T13:03:26;20.20;99.90
18384;DHT22;9318;48.644;9.456;2022-08-19T13:05:55;20.20;99.90
18384;DHT22;9318;48.644;9.456;2022-08-19T13:08:23;20.10;99.90
18384;DHT22;9318;48.644;9.456;2022-08-19T13:10:50;20.10;99.90
18384;DHT22;9318;48.644;9.456;2022-08-19T13:13:17;20.10;99.90
18384;DHT22;9318;48.644;9.456;2022-08-19T13:15:45;20.10;99.90
18384;DHT22;9318;48.644;9.456;2022-08-19T13:18:13;20.10;99.90
18384;DHT22;9318;48.644;9.456;2022-08-19T13:20:42;20.10;99.90
18384;DHT22;9318;48.644;9.456;2022-08-19T13:23:09;20.10;99.90
18384;DHT22;9318;48.644;9.456;2022-08-19T13:25:36;20.10;99.90
18384;DHT22;9318;48.644;9.456;2022-08-19T13:28:04;20.10;99.90
18384;DHT22;9318;48.644;9.456;2022-08-19T13:30:32;20.10;99.90
18384;DHT22;9318;48.644;9.456;2022-08-19T13:33:17;20.10;99.90
18384;DHT22;9318;48.644;9.456;2022-08-19T13:35:48;20.10;99.90
18384;DHT22;9318;48.644;9.456;2022-08-19T13:38:17;20.20;99.90
18384;DHT22;9318;48.644;9.456;2022-08-19T13:40:46;20.20;99.90
18384;DHT22;9318;48.644;9.456;2022-08-19T13:43:16;20.20;99.90
18384;DHT22;9318;48.644;9.456;2022-08-19T13:45:43;20.20;99.90
18384;DHT22;9318;48.644;9.456;2022-08-19T13:48:11;20.30;99.90
18384;DHT22;9318;48.644;9.456;2022-08-19T13:50:40;20.20;99.90
18384;DHT22;9318;48.644;9.456;2022-08-19T13:53:10;20.20;99.90
18384;DHT22;9318;48.644;9.456;2022-08-19T13:55:39;20.20;99.90
18384;DHT22;9318;48.644;9.456;2022-08-19T13:58:07;20.20;99.90
18384;DHT22;9318;48.644;9.456;2022-08-19T14:00:36;20.10;99.90
18384;DHT22;9318;48.644;9.456;2022-08-19T14:03:04;20.00;99.90
18384;DHT22;9318;48.644;9.456;2022-08-19T14:05:32;20.00;99.90
18384;DHT22;9318;48.644;9.456;2022-08-19T14:08:00;19.90;99.90
18384;DHT22;9318;48.644;9.456;2022-08-19T14:10:29;19.90;99.90
18384;DHT22;9318;48.644;9.456;2022-08-19T14:13:00;19.90;99.90
18384;DHT22;9318;48.644;9.456;2022-08-19T14:15:28;20.00;99.90
18384;DHT22;9318;48.644;9.456;2022-08-19T14:17:56;20.00;99.90
18384;DHT22;9318;48.644;9.456;2022-08-19T14:20:24;20.10;99.90
18384;DHT22;9318;48.644;9.456;2022-08-19T14:22:52;20.10;99.90
18384;DHT22;9318;48.644;9.456;2022-08-19T14:25:22;20.10;99.90
18384;DHT22;9318;48.644;9.456;2022-08-19T14:27:51;20.10;99.90
18384;DHT22;9318;48.644;9.456;2022-08-19T14:30:22;20.10;99.90
18384;DHT22;9318;48.644;9.456;2022-08-19T14:32:51;20.20;99.90
18384;DHT22;9318;48.644;9.456;2022-08-19T14:35:18;20.20;99.90
18384;DHT22;9318;48.644;9.456;2022-08-19T14:37:47;20.30;99.90
18384;DHT22;9318;48.644;9.456;2022-08-19T14:40:16;20.30;99.90
18384;DHT22;9318;48.644;9.456;2022-08-19T14:42:46;20.40;99.90
18384;DHT22;9318;48.644;9.456;2022-08-19T14:45:15;20.40;99.90
18384;DHT22;9318;48.644;9.456;2022-08-19T14:47:42;20.40;99.90
18384;DHT22;9318;48.644;9.456;2022-08-19T14:50:10;20.40;99.90
18384;DHT22;9318;48.644;9.456;2022-08-19T14:52:38;20.40;99.90
18384;DHT22;9318;48.644;9.456;2022-08-19T14:55:06;20.50;99.90
18384;DHT22;9318;48.644;9.456;2022-08-19T14:57:33;20.50;99.90
18384;DHT22;9318;48.644;9.456;2022-08-19T15:00:01;20.60;99.90
18384;DHT22;9318;48.644;9.456;2022-08-19T15:02:30;20.60;99.90
18384;DHT22;9318;48.644;9.456;2022-08-19T15:04:57;20.60;99.90
18384;DHT22;9318;48.644;9.456;2022-08-19T15:07:26;20.60;99.90
18384;DHT22;9318;48.644;9.456;2022-08-19T15:09:54;20.60;99.90
18384;DHT22;9318;48.644;9.456;2022-08-19T15:12:21;20.60;99.90
18384;DHT22;9318;48.644;9.456;2022-08-19T15:14:49;20.60;99.90
18384;DHT22;9318;48.644;9.456;2022-08-19T15:17:17;20.60;99.90
18384;DHT22;9318;48.644;9.456;2022-08-19T15:19:46;20.70;99.90
18384;DHT22;9318;48.644;9.456;2022-08-19T15:22:13;20.80;99.90
18384;DHT22;9318;48.644;9.456;2022-08-19T15:24:40;20.80;99.90
18384;DHT22;9318;48.644;9.456;2022-08-19T15:27:11;20.90;99.90
18384;DHT22;9318;48.644;9.456;2022-08-19T15:29:38;20.90;99.90
18384;DHT22;9318;48.644;9.456;2022-08-19T15:32:06;21.00;99.90
18384;DHT22;9318;48.644;9.456;2022-08-19T15:34:34;21.00;99.90
18384;DHT22;9318;48.644;9.456;2022-08-19T15:37:06;21.00;99.90
18384;DHT22;9318;48.644;9.456;2022-08-19T15:39:37;20.90;99.90
18384;DHT22;9318;48.644;9.456;2022-08-19T15:42:05;20.90;99.90
18384;DHT22;9318;48.644;9.456;2022-08-19T15:44:33;20.80;99.90
18384;DHT22;9318;48.644;9.456;2022-08-19T15:47:00;20.80;99.90
18384;DHT22;9318;48.644;9.456;2022-08-19T15:49:28;20.80;99.90
18384;DHT22;9318;48.644;9.456;2022-08-19T15:51:55;20.80;99.90
18384;DHT22;9318;48.644;9.456;2022-08-19T15:54:26;20.80;99.90
18384;DHT22;9318;48.644;9.456;2022-08-19T15:56:53;20.70;99.90